Caerdydd, United Kingdom

11:17 AM BST ar Mehefin 27, 2017 (GMT +0100)
Grangetown | | Change Station

Elev 23 ft 51.47 °N, 3.19 °W | Updated 7 seconds ago

Cymylog
Cymylog
64.6 °F
Feels Like 64.6 °F
N
1.1
Gwynt Cyfnewidiol Gwynt from Dwyrain
Gusts 2.5 mph

Heddiw
High -- | Low -- °F
--% Chance of Precip.
Yesterday
High -- | Low -- °F
Precip. -- mod
Gwasgedd 29.74 mod
Gwelededd 6.2 Milltiroedd
Clouds Cymylog 2700 ft
Gwlithbwynt 46 °F
Lleithder 50%
Rainfall 0.00 mod
Snow Depth Not available.
4:57 AM 9:33 PM
Waxing Crescent, 15% visible
METAR EGFF 270950Z AUTO 13007KT 9999 OVC027 17/12 Q1007
Gwasgedd 29.74 mod
Gwelededd 6.2 Milltiroedd
Clouds Cymylog 2700 ft
Gwlithbwynt 46 °F
Lleithder 50%
Rainfall 0.00 mod
Snow Depth Not available.
4:57 AM 9:33 PM
Waxing Crescent, 15% visible
METAR EGFF 270950Z AUTO 13007KT 9999 OVC027 17/12 Q1007

Get Severe Weather Alerts

Thanks for signing up!

Be on the lookout for a verification email in your inbox.

You'll start receiving the daily forecast at 6 AM.

×

10-Day Weather Forecast

×

Almanac

Astronomy

Jun. 27, 2017 Rise Set
Actual Time
Civil Twilight
Nautical Twilight
Astronomical Twilight
Moon
Length Of Visible Light
Length of Day
Tomorrow will be .
, % of the Moon is Illuminated

Today's Extremes

Country Highs Country Lows

Community

WunderPhotos

Category 6

Welcome to Category 6. This is the collective home for Weather Underground's featured writeups by Dr. Jeff Masters (right), Bob Henson (left), Chris Burt, and other regular contributors.

Nearby

Air Quality

  Air Quality AQ Index Pollutant
Not available.

Snow Depth

Station Depth Elevation

Earthquake Activity

City Distance Mag. Time & Date
Minimum magnitude displayed is 2.5.

Coastal Water Temperatures

Lle Tymheredd

Stations

Nearby Weather Stations

Station Location Temp Oerfel Gwynt Gwlithbwynt Lleithder Gwynt Precip. Elev Diweddarwyd Type